createdAt,value
2022-12-18T00:03:28.071Z,98991.69
2022-12-18T00:08:30.827Z,98976.09
2022-12-18T00:13:33.603Z,98961.56
2022-12-18T00:18:36.812Z,98959.97
2022-12-18T00:23:41.631Z,98935.03
2022-12-18T00:28:45.658Z,98898.88
2022-12-18T00:33:49.090Z,98953.16
2022-12-18T00:38:58.387Z,98913.63
2022-12-18T00:44:01.228Z,98917.63
2022-12-18T00:49:04.144Z,98916.91
2022-12-18T00:54:06.902Z,98913.50
2022-12-18T00:59:09.504Z,98870.56
2022-12-18T01:04:12.677Z,98895.09
2022-12-18T01:09:15.789Z,98882.22
2022-12-18T01:14:18.315Z,98873.84
2022-12-18T01:19:20.879Z,98886.84
2022-12-18T01:24:23.821Z,98902.09
2022-12-18T01:29:26.583Z,98884.81
2022-12-18T01:34:30.516Z,98884.88
2022-12-18T01:39:34.001Z,98873.72
2022-12-18T01:45:07.865Z,98879.63
2022-12-18T01:50:33.320Z,98842.09
2022-12-18T01:55:44.077Z,98875.13
2022-12-18T02:00:49.721Z,98878.97
2022-12-18T02:06:04.889Z,98875.81
2022-12-18T02:11:47.619Z,98880.91
2022-12-18T02:16:58.352Z,98886.63
2022-12-18T02:22:15.891Z,98881.66
2022-12-18T02:27:19.764Z,98880.34
2022-12-18T02:32:29.900Z,98862.03
2022-12-18T02:37:35.150Z,98877.47
2022-12-18T02:42:40.935Z,98897.25
2022-12-18T02:47:49.120Z,98891.41
2022-12-18T02:53:13.043Z,98900.31
2022-12-18T02:58:19.855Z,98892.81
2022-12-18T03:03:33.705Z,98872.81
2022-12-18T03:08:47.274Z,98885.56
2022-12-18T03:13:57.222Z,98865.22
2022-12-18T03:19:08.073Z,98882.09
2022-12-18T03:24:12.311Z,98895.13
2022-12-18T03:29:22.028Z,98888.75
2022-12-18T03:34:31.761Z,98884.69
2022-12-18T03:39:38.146Z,98879.94
2022-12-18T03:44:46.869Z,98875.13
2022-12-18T03:50:09.596Z,98863.72
2022-12-18T03:55:16.650Z,98901.34
2022-12-18T04:00:22.210Z,98864.00
2022-12-18T04:05:33.061Z,98889.59
2022-12-18T04:10:37.337Z,98908.53
2022-12-18T04:15:40.840Z,98916.34
2022-12-18T04:20:48.627Z,98938.19
2022-12-18T04:25:53.895Z,98924.75
2022-12-18T04:31:10.061Z,98941.13
2022-12-18T04:36:13.562Z,98955.72
2022-12-18T04:41:16.894Z,98943.63
2022-12-18T04:46:22.389Z,98909.28
2022-12-18T04:51:26.866Z,98964.38
2022-12-18T04:56:29.534Z,98960.75
2022-12-18T05:01:34.752Z,98964.34
2022-12-18T05:06:37.796Z,98950.53
2022-12-18T05:11:40.287Z,98970.75
2022-12-18T05:16:42.829Z,98987.75
2022-12-18T05:21:45.512Z,98983.97
2022-12-18T05:26:48.451Z,99014.00
2022-12-18T05:31:51.118Z,99009.13
2022-12-18T05:36:53.628Z,99037.16
2022-12-18T05:41:56.241Z,99029.94
2022-12-18T05:46:59.040Z,99041.03
2022-12-18T05:52:01.907Z,99038.97
2022-12-18T05:57:04.625Z,99037.25
2022-12-18T06:02:07.875Z,99060.56
2022-12-18T06:07:10.603Z,99076.13
2022-12-18T06:12:13.222Z,99052.75
2022-12-18T06:17:15.791Z,99079.88
2022-12-18T06:22:18.376Z,99084.28
2022-12-18T06:27:20.922Z,99084.06
2022-12-18T06:32:23.452Z,99098.00
2022-12-18T06:37:27.201Z,99137.19
2022-12-18T06:42:30.225Z,99111.91
2022-12-18T06:47:33.074Z,99156.06
2022-12-18T06:52:35.872Z,99144.94
2022-12-18T06:57:38.931Z,99137.81
2022-12-18T07:02:41.731Z,99158.56
2022-12-18T07:07:44.479Z,99157.41
2022-12-18T07:12:47.286Z,99151.88
2022-12-18T07:17:49.843Z,99182.66
2022-12-18T07:22:56.230Z,99199.41
2022-12-18T07:27:59.213Z,99180.47
2022-12-18T07:33:01.734Z,99216.59
2022-12-18T07:38:04.263Z,99206.72
2022-12-18T07:43:06.823Z,99200.97
2022-12-18T07:48:09.526Z,99201.59
2022-12-18T07:53:12.063Z,99209.97
2022-12-18T07:58:15.187Z,99217.00
2022-12-18T08:03:17.779Z,99237.25
2022-12-18T08:08:20.497Z,99252.38
2022-12-18T08:13:24.140Z,99277.56
2022-12-18T08:18:27.452Z,99271.66
2022-12-18T08:23:30.024Z,99289.81
2022-12-18T08:28:32.909Z,99297.63
2022-12-18T08:33:37.020Z,99307.50
2022-12-18T08:38:39.624Z,99289.94
2022-12-18T08:44:00.797Z,99307.06
2022-12-18T08:49:04.361Z,99308.50
2022-12-18T08:54:07.931Z,99313.19
2022-12-18T08:59:15.828Z,99301.22
2022-12-18T09:04:21.590Z,99313.34
2022-12-18T09:09:24.126Z,99311.53
2022-12-18T09:14:27.239Z,99331.03
2022-12-18T09:19:29.795Z,99338.50
2022-12-18T09:24:32.542Z,99353.44
2022-12-18T09:29:35.427Z,99367.19
2022-12-18T09:34:37.975Z,99369.91
2022-12-18T09:39:40.573Z,99360.19
2022-12-18T09:44:50.119Z,99364.84
2022-12-18T09:50:18.642Z,99375.41
2022-12-18T09:55:37.469Z,99400.00
2022-12-18T10:00:43.540Z,99402.16
2022-12-18T10:06:14.385Z,99400.44
2022-12-18T10:11:26.135Z,99416.81
2022-12-18T10:17:04.674Z,99420.50
2022-12-18T10:22:32.130Z,99403.00
2022-12-18T10:27:34.952Z,99412.34
2022-12-18T10:32:37.724Z,99415.03
2022-12-18T10:38:20.545Z,99412.19
2022-12-18T10:43:31.331Z,99422.50
2022-12-18T10:48:41.280Z,99446.09
2022-12-18T10:54:13.283Z,99464.84
2022-12-18T10:59:18.667Z,99473.19
2022-12-18T11:04:24.266Z,99480.84
2022-12-18T11:09:30.226Z,99472.50
2022-12-18T11:14:57.691Z,99480.06
2022-12-18T11:20:04.916Z,99460.28
2022-12-18T11:30:37.959Z,99500.09
2022-12-18T11:35:51.019Z,99471.38
2022-12-18T11:41:05.317Z,99490.69
2022-12-18T11:46:19.623Z,99506.31
2022-12-18T11:51:39.004Z,99516.78
2022-12-18T11:57:08.754Z,99541.38
2022-12-18T12:02:53.510Z,99543.41
2022-12-18T12:08:41.975Z,99569.69
2022-12-18T12:14:18.538Z,99574.28
2022-12-18T12:19:28.973Z,99549.94
2022-12-18T12:24:59.934Z,99594.13
2022-12-18T12:30:17.808Z,99612.84
2022-12-18T12:35:38.586Z,99612.03
2022-12-18T12:40:53.874Z,99632.78
2022-12-18T12:46:04.377Z,99644.38
2022-12-18T12:51:17.330Z,99648.41
2022-12-18T12:56:22.494Z,99663.16
2022-12-18T13:01:44.629Z,99671.88
2022-12-18T13:07:26.164Z,99686.22
2022-12-18T13:12:48.528Z,99698.28
2022-12-18T13:18:24.196Z,99724.03
2022-12-18T13:23:29.403Z,99694.28
2022-12-18T13:28:47.927Z,99720.31
2022-12-18T13:34:24.460Z,99742.75
2022-12-18T13:39:21.259Z,99763.75
2022-12-18T13:44:42.270Z,99752.16
2022-12-18T13:49:45.968Z,99780.72
2022-12-18T13:54:58.459Z,99777.34
2022-12-18T14:00:23.903Z,99791.00
2022-12-18T14:05:28.135Z,99805.69
2022-12-18T14:10:48.198Z,99809.78
2022-12-18T14:15:52.784Z,99812.00
2022-12-18T14:21:01.085Z,99826.59
2022-12-18T14:26:20.956Z,99827.00
2022-12-18T14:31:29.806Z,99858.63
2022-12-18T14:36:32.794Z,99845.50
2022-12-18T14:41:35.598Z,99876.56
2022-12-18T14:46:41.049Z,99872.75
2022-12-18T14:51:49.901Z,99902.19
2022-12-18T14:57:01.944Z,99905.41
2022-12-18T15:02:26.838Z,99886.88
2022-12-18T15:07:50.807Z,99881.59
2022-12-18T15:13:03.987Z,99917.44
2022-12-18T15:18:09.719Z,99943.63
2022-12-18T15:23:47.509Z,99937.53
2022-12-18T15:29:04.088Z,99951.00
2022-12-18T15:34:11.821Z,99955.28
2022-12-18T15:39:14.684Z,99968.44
2022-12-18T15:44:26.717Z,99963.66
2022-12-18T15:49:29.648Z,99976.47
2022-12-18T15:54:51.259Z,99983.28
2022-12-18T15:59:55.244Z,99989.56
2022-12-18T16:04:57.941Z,99965.94
2022-12-18T16:10:02.218Z,100019.03
2022-12-18T16:15:07.090Z,100022.78
2022-12-18T16:20:18.247Z,99991.66
2022-12-18T16:25:23.772Z,100018.75
2022-12-18T16:30:29.479Z,100049.72
2022-12-18T16:35:40.839Z,100076.38
2022-12-18T16:41:03.346Z,100068.69
2022-12-18T16:46:06.123Z,100075.34
2022-12-18T16:51:09.003Z,100082.50
2022-12-18T16:56:11.643Z,100093.25
2022-12-18T17:01:14.230Z,100102.44
2022-12-18T17:06:17.077Z,100111.72
2022-12-18T17:11:21.552Z,100113.47
2022-12-18T17:16:24.429Z,100132.41
2022-12-18T17:21:27.003Z,100151.09
2022-12-18T17:26:30.395Z,100157.59
2022-12-18T17:31:33.421Z,100160.09
2022-12-18T17:36:36.877Z,100120.91
2022-12-18T17:41:39.441Z,100175.69
2022-12-18T17:46:42.653Z,100171.72
2022-12-18T17:51:45.356Z,100145.34
2022-12-18T17:56:47.955Z,100197.09
2022-12-18T18:01:50.855Z,100194.34
2022-12-18T18:06:53.651Z,100187.63
2022-12-18T18:12:14.792Z,100223.72
2022-12-18T18:17:17.493Z,100199.19
2022-12-18T18:22:20.278Z,100214.03
2022-12-18T18:27:22.927Z,100230.81
2022-12-18T18:32:25.608Z,100250.25
2022-12-18T18:37:28.618Z,100275.19
2022-12-18T18:42:31.273Z,100275.69
2022-12-18T18:47:33.880Z,100281.03
2022-12-18T18:52:36.391Z,100289.44
2022-12-18T18:57:42.171Z,100291.78
2022-12-18T19:02:45.627Z,100320.47
2022-12-18T19:07:48.340Z,100325.38
2022-12-18T19:13:09.487Z,100316.63
2022-12-18T19:18:12.100Z,100340.31
2022-12-18T19:23:14.992Z,100335.19
2022-12-18T19:28:22.279Z,100356.75
2022-12-18T19:38:49.739Z,100367.38
2022-12-18T19:43:53.346Z,100380.19
2022-12-18T19:48:56.050Z,100392.06
2022-12-18T19:54:01.738Z,100387.69
2022-12-18T19:59:05.819Z,100351.84
2022-12-18T20:04:08.556Z,100399.72
2022-12-18T20:09:11.921Z,100374.91
2022-12-18T20:14:16.935Z,100375.66
2022-12-18T20:19:26.727Z,100419.38
2022-12-18T20:24:29.286Z,100414.75
2022-12-18T20:29:31.847Z,100422.88
2022-12-18T20:34:34.574Z,100429.50
2022-12-18T20:39:37.859Z,100440.19
2022-12-18T20:44:40.740Z,100430.66
2022-12-18T20:49:45.583Z,100425.88
2022-12-18T20:54:48.963Z,100398.28
2022-12-18T20:59:52.820Z,100450.44
2022-12-18T21:04:55.382Z,100459.22
2022-12-18T21:09:58.028Z,100460.25
2022-12-18T21:15:02.582Z,100459.66
2022-12-18T21:20:07.663Z,100437.09
2022-12-18T21:25:10.562Z,100429.34
2022-12-18T21:30:15.081Z,100434.09
2022-12-18T21:35:18.011Z,100460.03
2022-12-18T21:40:22.546Z,100470.06
2022-12-18T21:45:25.375Z,100427.56
2022-12-18T21:50:27.920Z,100482.84
2022-12-18T21:55:30.484Z,100489.34
2022-12-18T22:00:33.453Z,100495.22
2022-12-18T22:05:36.706Z,100499.25
2022-12-18T22:10:39.654Z,100497.88
2022-12-18T22:15:42.699Z,100494.34
2022-12-18T22:20:45.340Z,100492.09
2022-12-18T22:25:47.951Z,100492.50
2022-12-18T22:30:51.962Z,100484.97
2022-12-18T22:36:08.172Z,100501.63
2022-12-18T22:41:10.722Z,100471.56
2022-12-18T22:46:19.230Z,100494.53
2022-12-18T22:51:21.997Z,100500.63
2022-12-18T22:56:24.852Z,100493.97
2022-12-18T23:01:29.677Z,100522.28
2022-12-18T23:06:32.693Z,100532.72
2022-12-18T23:11:35.265Z,100539.91
2022-12-18T23:16:37.946Z,100528.88
2022-12-18T23:21:40.818Z,100527.53
2022-12-18T23:26:43.399Z,100540.56
2022-12-18T23:31:46.176Z,100536.31
2022-12-18T23:36:52.035Z,100555.47
2022-12-18T23:42:00.553Z,100550.06
2022-12-18T23:47:03.262Z,100560.22
2022-12-18T23:52:05.807Z,100566.41
2022-12-18T23:57:08.481Z,100576.16
